Hlavní strana
METAR-TAF:

METAR-TAF

Letiště :

Ronneby, Švédsko

zeměpisná šířka: 56-16N, zeměpisná délka: 015-17E, výška: 58 m

Aktuální stav počasí

Zpráva byla vytvořena před 38 minutami, v 21:50 UTC
vítr z různých směrů 1 kt
Teplota -2°C
Vlhkost vzduchu 93%
Tlak 1022 hPa
Viditelnost 10 km a více

METAR: ESDF 262150Z AUTO VRB01KT 9999 NCD M02/M03 Q1022

Čas: 23:28 (22:28 UTC)

Předpověď počasí

Zpráva byla vytvořena před 1 hodinou a 58 minutami, v 20:30 UTC
Předpověď platná od 26 v 21 UTC do 27 v 06 UTC
Západojihozápadní vítr 3 kt
Viditelnost 10 km a více
Žádná oblačnost pod 1500 m, nevyskytují se cumulonimby.
Pravděpodobnost 40%
od 27 v 04 UTC do 27 v 06 UTC
Viditelnost: 4000 m
Oblačno až skoro zataženo ve výšce 600 ft
kouřmo, mrholení

TAF: ESDF 262030Z 2621/2706 25003KT CAVOK PROB40 2704/2706 4000 BR DZ BKN006 RMK MIL

Stav a předpovědi počasí z více než 4 000 letišť (zprávy METAR a TAF).

Červené a žluté tečky na mapě představují dostupné meteorologické stanice.

Když kurzor umístíte na tečku, zobrazí se název stanice.

Pak kliknutím zobrazíte stav a předpověď počasí.

Chcete-li změnit mapu, kliknutím na zelené tlačítko se znaménkem +mapu přiblížíte, kliknutím na zelené tlačítko se znaménkem – mapu oddálíte a kliknutím na zelené šipky přejdete na sousední mapy.


METAR-TAF: